sensor_id;sensor_type;location;lat;lon;timestamp;pressure;altitude;pressure_sealevel;temperature;humidity
13593;BME280;6867;50.998;4.250;2023-08-01T00:01:16;99835.38;;;17.89;99.50
13593;BME280;6867;50.998;4.250;2023-08-01T00:03:43;99828.34;;;17.73;99.13
13593;BME280;6867;50.998;4.250;2023-08-01T00:06:09;99835.94;;;17.76;99.61
13593;BME280;6867;50.998;4.250;2023-08-01T00:08:36;99829.47;;;17.62;100.00
13593;BME280;6867;50.998;4.250;2023-08-01T00:11:02;99828.38;;;17.63;99.99
13593;BME280;6867;50.998;4.250;2023-08-01T00:13:29;99827.53;;;17.73;99.95
13593;BME280;6867;50.998;4.250;2023-08-01T00:15:57;99831.91;;;17.68;99.96
13593;BME280;6867;50.998;4.250;2023-08-01T00:18:24;99844.00;;;17.97;99.46
13593;BME280;6867;50.998;4.250;2023-08-01T00:20:52;99844.53;;;18.04;99.21
13593;BME280;6867;50.998;4.250;2023-08-01T00:23:19;99844.28;;;18.00;99.18
13593;BME280;6867;50.998;4.250;2023-08-01T00:25:45;99849.94;;;18.09;98.86
13593;BME280;6867;50.998;4.250;2023-08-01T00:28:16;99840.25;;;17.87;99.29
13593;BME280;6867;50.998;4.250;2023-08-01T00:30:43;99843.47;;;18.00;98.61
13593;BME280;6867;50.998;4.250;2023-08-01T00:33:11;99850.53;;;17.96;98.41
13593;BME280;6867;50.998;4.250;2023-08-01T00:35:38;99845.16;;;17.90;99.17
13593;BME280;6867;50.998;4.250;2023-08-01T00:38:05;99843.50;;;17.95;99.11
13593;BME280;6867;50.998;4.250;2023-08-01T00:40:32;99834.81;;;17.87;98.63
13593;BME280;6867;50.998;4.250;2023-08-01T00:42:58;99846.53;;;17.83;98.70
13593;BME280;6867;50.998;4.250;2023-08-01T00:45:26;99847.63;;;17.82;98.63
13593;BME280;6867;50.998;4.250;2023-08-01T00:47:54;99841.66;;;17.75;99.01
13593;BME280;6867;50.998;4.250;2023-08-01T00:50:22;99843.22;;;17.91;99.07
13593;BME280;6867;50.998;4.250;2023-08-01T00:52:50;99846.22;;;17.95;99.15
13593;BME280;6867;50.998;4.250;2023-08-01T00:55:18;99840.53;;;17.91;98.95
13593;BME280;6867;50.998;4.250;2023-08-01T00:57:45;99847.88;;;17.85;99.24
13593;BME280;6867;50.998;4.250;2023-08-01T01:00:13;99836.19;;;17.90;99.07
13593;BME280;6867;50.998;4.250;2023-08-01T01:02:40;99841.94;;;17.78;98.62
13593;BME280;6867;50.998;4.250;2023-08-01T01:05:07;99837.56;;;17.82;98.13
13593;BME280;6867;50.998;4.250;2023-08-01T01:07:36;99834.28;;;17.90;98.14
13593;BME280;6867;50.998;4.250;2023-08-01T01:10:03;99825.03;;;17.91;98.22
13593;BME280;6867;50.998;4.250;2023-08-01T01:12:30;99832.03;;;18.03;98.00
13593;BME280;6867;50.998;4.250;2023-08-01T01:14:57;99840.97;;;18.08;97.56
13593;BME280;6867;50.998;4.250;2023-08-01T01:17:23;99832.06;;;17.92;97.60
13593;BME280;6867;50.998;4.250;2023-08-01T01:19:50;99831.25;;;17.92;97.87
13593;BME280;6867;50.998;4.250;2023-08-01T01:22:19;99829.16;;;17.79;97.53
13593;BME280;6867;50.998;4.250;2023-08-01T01:24:46;99838.88;;;17.95;97.41
13593;BME280;6867;50.998;4.250;2023-08-01T01:27:16;99824.41;;;18.05;97.01
13593;BME280;6867;50.998;4.250;2023-08-01T01:29:43;99824.25;;;17.86;96.41
13593;BME280;6867;50.998;4.250;2023-08-01T01:32:11;99836.16;;;17.95;96.42
13593;BME280;6867;50.998;4.250;2023-08-01T01:34:38;99815.50;;;17.94;95.25
13593;BME280;6867;50.998;4.250;2023-08-01T01:37:05;99822.59;;;17.90;95.15
13593;BME280;6867;50.998;4.250;2023-08-01T01:39:33;99823.44;;;17.80;95.92
13593;BME280;6867;50.998;4.250;2023-08-01T01:42:00;99819.13;;;17.74;95.74
13593;BME280;6867;50.998;4.250;2023-08-01T01:44:26;99828.78;;;18.01;95.68
13593;BME280;6867;50.998;4.250;2023-08-01T01:46:53;99833.91;;;18.07;95.38
13593;BME280;6867;50.998;4.250;2023-08-01T01:49:20;99819.66;;;17.76;95.19
13593;BME280;6867;50.998;4.250;2023-08-01T01:51:46;99831.31;;;17.87;95.59
13593;BME280;6867;50.998;4.250;2023-08-01T01:54:13;99834.53;;;17.89;96.14
13593;BME280;6867;50.998;4.250;2023-08-01T01:56:41;99824.25;;;17.86;95.11
13593;BME280;6867;50.998;4.250;2023-08-01T01:59:07;99818.03;;;17.70;95.62
13593;BME280;6867;50.998;4.250;2023-08-01T02:01:34;99822.06;;;17.88;95.36
13593;BME280;6867;50.998;4.250;2023-08-01T02:04:01;99830.19;;;17.88;95.22
13593;BME280;6867;50.998;4.250;2023-08-01T02:06:27;99837.84;;;17.81;95.65
13593;BME280;6867;50.998;4.250;2023-08-01T02:08:54;99830.53;;;17.66;95.40
13593;BME280;6867;50.998;4.250;2023-08-01T02:11:21;99839.44;;;17.87;95.20
13593;BME280;6867;50.998;4.250;2023-08-01T02:13:49;99834.31;;;17.85;95.35
13593;BME280;6867;50.998;4.250;2023-08-01T02:16:15;99838.06;;;17.95;94.61
13593;BME280;6867;50.998;4.250;2023-08-01T02:18:42;99836.50;;;17.78;95.02
13593;BME280;6867;50.998;4.250;2023-08-01T02:21:09;99847.81;;;18.01;94.76
13593;BME280;6867;50.998;4.250;2023-08-01T02:23:35;99839.19;;;17.83;94.61
13593;BME280;6867;50.998;4.250;2023-08-01T02:26:02;99836.16;;;17.95;94.12
13593;BME280;6867;50.998;4.250;2023-08-01T02:28:29;99835.88;;;17.97;93.64
13593;BME280;6867;50.998;4.250;2023-08-01T02:30:57;99840.34;;;17.57;94.05
13593;BME280;6867;50.998;4.250;2023-08-01T02:33:24;99839.81;;;17.50;94.31
13593;BME280;6867;50.998;4.250;2023-08-01T02:35:50;99841.91;;;17.83;94.00
13593;BME280;6867;50.998;4.250;2023-08-01T02:38:17;99843.28;;;17.81;93.73
13593;BME280;6867;50.998;4.250;2023-08-01T02:40:44;99837.53;;;17.87;93.85
13593;BME280;6867;50.998;4.250;2023-08-01T02:43:10;99833.50;;;17.70;92.98
13593;BME280;6867;50.998;4.250;2023-08-01T02:45:37;99840.28;;;17.72;93.91
13593;BME280;6867;50.998;4.250;2023-08-01T02:48:05;99843.47;;;18.00;93.18
13593;BME280;6867;50.998;4.250;2023-08-01T02:50:31;99842.50;;;17.55;93.87
13593;BME280;6867;50.998;4.250;2023-08-01T02:52:58;99847.13;;;17.64;94.02
13593;BME280;6867;50.998;4.250;2023-08-01T02:55:25;99846.03;;;17.55;94.02
13593;BME280;6867;50.998;4.250;2023-08-01T02:57:51;99840.91;;;17.54;93.82
13593;BME280;6867;50.998;4.250;2023-08-01T03:00:18;99851.22;;;17.57;94.80
13593;BME280;6867;50.998;4.250;2023-08-01T03:02:45;99836.00;;;17.51;94.21
13593;BME280;6867;50.998;4.250;2023-08-01T03:05:13;99830.81;;;17.75;93.95
13593;BME280;6867;50.998;4.250;2023-08-01T03:07:39;99842.75;;;17.68;94.42
13593;BME280;6867;50.998;4.250;2023-08-01T03:10:06;99834.66;;;17.53;94.01
13593;BME280;6867;50.998;4.250;2023-08-01T03:12:33;99837.88;;;17.55;94.65
13593;BME280;6867;50.998;4.250;2023-08-01T03:15:00;99843.03;;;17.62;95.06
13593;BME280;6867;50.998;4.250;2023-08-01T03:17:26;99854.44;;;17.59;95.24
13593;BME280;6867;50.998;4.250;2023-08-01T03:19:53;99844.72;;;17.53;95.16
13593;BME280;6867;50.998;4.250;2023-08-01T03:22:21;99847.34;;;17.68;95.04
13593;BME280;6867;50.998;4.250;2023-08-01T03:24:48;99846.31;;;17.54;95.16
13593;BME280;6867;50.998;4.250;2023-08-01T03:27:14;99857.16;;;17.74;94.83
13593;BME280;6867;50.998;4.250;2023-08-01T03:29:41;99852.31;;;17.51;94.43
13593;BME280;6867;50.998;4.250;2023-08-01T03:32:08;99855.28;;;17.54;95.46
13593;BME280;6867;50.998;4.250;2023-08-01T03:34:34;99844.41;;;17.59;94.91
13593;BME280;6867;50.998;4.250;2023-08-01T03:37:01;99845.81;;;17.41;95.64
13593;BME280;6867;50.998;4.250;2023-08-01T03:39:30;99851.44;;;17.65;95.71
13593;BME280;6867;50.998;4.250;2023-08-01T03:41:57;99846.38;;;17.43;95.23
13593;BME280;6867;50.998;4.250;2023-08-01T03:44:23;99859.03;;;17.63;96.14
13593;BME280;6867;50.998;4.250;2023-08-01T03:46:50;99857.44;;;17.57;95.89
13593;BME280;6867;50.998;4.250;2023-08-01T03:49:17;99859.69;;;17.20;96.49
13593;BME280;6867;50.998;4.250;2023-08-01T03:51:43;99852.25;;;17.66;95.93
13593;BME280;6867;50.998;4.250;2023-08-01T03:54:10;99857.22;;;17.33;96.52
13593;BME280;6867;50.998;4.250;2023-08-01T03:56:38;99860.47;;;17.30;96.69
13593;BME280;6867;50.998;4.250;2023-08-01T03:59:08;99863.50;;;17.24;97.55
13593;BME280;6867;50.998;4.250;2023-08-01T04:01:34;99856.19;;;16.99;97.78
13593;BME280;6867;50.998;4.250;2023-08-01T04:04:01;99856.69;;;17.36;97.27
13593;BME280;6867;50.998;4.250;2023-08-01T04:06:28;99848.03;;;17.24;97.02
13593;BME280;6867;50.998;4.250;2023-08-01T04:08:55;99853.66;;;17.43;97.10
13593;BME280;6867;50.998;4.250;2023-08-01T04:11:22;99852.34;;;17.30;96.70
13593;BME280;6867;50.998;4.250;2023-08-01T04:13:50;99859.97;;;17.23;96.76
13593;BME280;6867;50.998;4.250;2023-08-01T04:16:17;99865.13;;;17.20;97.55
13593;BME280;6867;50.998;4.250;2023-08-01T04:18:43;99864.84;;;17.26;97.54
13593;BME280;6867;50.998;4.250;2023-08-01T04:21:12;99857.75;;;17.40;96.42
13593;BME280;6867;50.998;4.250;2023-08-01T04:23:39;99854.84;;;17.06;97.01
13593;BME280;6867;50.998;4.250;2023-08-01T04:26:06;99864.31;;;17.19;98.07
13593;BME280;6867;50.998;4.250;2023-08-01T04:28:32;99850.75;;;17.24;97.22
13593;BME280;6867;50.998;4.250;2023-08-01T04:31:00;99855.06;;;17.35;96.82
13593;BME280;6867;50.998;4.250;2023-08-01T04:33:27;99847.19;;;17.34;96.75
13593;BME280;6867;50.998;4.250;2023-08-01T04:35:54;99851.28;;;17.21;96.17
13593;BME280;6867;50.998;4.250;2023-08-01T04:38:20;99848.84;;;17.25;96.79
13593;BME280;6867;50.998;4.250;2023-08-01T04:40:47;99855.31;;;17.34;96.76
13593;BME280;6867;50.998;4.250;2023-08-01T04:43:14;99864.03;;;17.15;96.63
13593;BME280;6867;50.998;4.250;2023-08-01T04:45:40;99855.59;;;17.22;96.41
13593;BME280;6867;50.998;4.250;2023-08-01T04:48:08;99854.56;;;17.08;96.26
13593;BME280;6867;50.998;4.250;2023-08-01T04:50:35;99859.97;;;17.13;97.08
13593;BME280;6867;50.998;4.250;2023-08-01T04:53:02;99864.53;;;17.43;96.38
13593;BME280;6867;50.998;4.250;2023-08-01T04:55:29;99863.72;;;17.48;95.23
13593;BME280;6867;50.998;4.250;2023-08-01T04:57:56;99861.00;;;17.42;95.39
13593;BME280;6867;50.998;4.250;2023-08-01T05:00:22;99863.41;;;17.59;95.04
13593;BME280;6867;50.998;4.250;2023-08-01T05:02:49;99867.50;;;17.57;95.17
13593;BME280;6867;50.998;4.250;2023-08-01T05:05:17;99868.53;;;17.81;94.28
13593;BME280;6867;50.998;4.250;2023-08-01T05:07:44;99869.91;;;17.63;93.47
13593;BME280;6867;50.998;4.250;2023-08-01T05:10:10;99872.34;;;17.75;93.23
13593;BME280;6867;50.998;4.250;2023-08-01T05:12:37;99864.22;;;17.65;93.57
13593;BME280;6867;50.998;4.250;2023-08-01T05:15:04;99875.00;;;17.96;93.41
13593;BME280;6867;50.998;4.250;2023-08-01T05:17:31;99870.03;;;18.13;92.10
13593;BME280;6867;50.998;4.250;2023-08-01T05:19:58;99863.13;;;17.81;91.20
13593;BME280;6867;50.998;4.250;2023-08-01T05:22:27;99876.63;;;18.02;92.80
13593;BME280;6867;50.998;4.250;2023-08-01T05:24:53;99880.50;;;17.85;92.94
13593;BME280;6867;50.998;4.250;2023-08-01T05:27:20;99884.84;;;18.41;91.35
13593;BME280;6867;50.998;4.250;2023-08-01T05:29:46;99875.34;;;18.33;90.34
13593;BME280;6867;50.998;4.250;2023-08-01T05:32:13;99878.31;;;17.82;90.62
13593;BME280;6867;50.998;4.250;2023-08-01T05:34:40;99877.53;;;17.61;91.62
13593;BME280;6867;50.998;4.250;2023-08-01T05:37:06;99885.84;;;18.01;91.48
13593;BME280;6867;50.998;4.250;2023-08-01T05:39:34;99884.66;;;18.66;90.26
13593;BME280;6867;50.998;4.250;2023-08-01T05:42:01;99879.13;;;18.37;88.43
13593;BME280;6867;50.998;4.250;2023-08-01T05:44:28;99888.44;;;18.31;89.11
13593;BME280;6867;50.998;4.250;2023-08-01T05:46:54;99883.09;;;18.55;88.78
13593;BME280;6867;50.998;4.250;2023-08-01T05:49:21;99889.69;;;18.49;88.47
13593;BME280;6867;50.998;4.250;2023-08-01T05:51:48;99892.69;;;18.48;88.18
13593;BME280;6867;50.998;4.250;2023-08-01T05:54:14;99894.22;;;18.59;87.60
13593;BME280;6867;50.998;4.250;2023-08-01T05:56:43;99891.59;;;18.49;87.41
13593;BME280;6867;50.998;4.250;2023-08-01T05:59:09;99890.03;;;18.82;87.02
13593;BME280;6867;50.998;4.250;2023-08-01T06:01:36;99887.63;;;19.09;85.63
13593;BME280;6867;50.998;4.250;2023-08-01T06:04:03;99886.41;;;18.91;85.78
13593;BME280;6867;50.998;4.250;2023-08-01T06:06:30;99895.19;;;19.17;84.79
13593;BME280;6867;50.998;4.250;2023-08-01T06:08:56;99894.53;;;18.57;86.01
13593;BME280;6867;50.998;4.250;2023-08-01T06:11:23;99902.22;;;18.89;86.65
13593;BME280;6867;50.998;4.250;2023-08-01T06:13:52;99904.66;;;18.91;86.28
13593;BME280;6867;50.998;4.250;2023-08-01T06:16:19;99906.31;;;18.87;85.48
13593;BME280;6867;50.998;4.250;2023-08-01T06:18:45;99901.63;;;18.92;84.75
13593;BME280;6867;50.998;4.250;2023-08-01T06:21:12;99905.78;;;18.85;85.35
13593;BME280;6867;50.998;4.250;2023-08-01T06:23:39;99908.53;;;19.14;84.49
13593;BME280;6867;50.998;4.250;2023-08-01T06:26:05;99906.53;;;18.96;84.24
13593;BME280;6867;50.998;4.250;2023-08-01T06:28:32;99909.97;;;19.40;84.18
13593;BME280;6867;50.998;4.250;2023-08-01T06:31:00;99905.38;;;19.60;83.12
13593;BME280;6867;50.998;4.250;2023-08-01T06:33:27;99909.66;;;19.71;81.96
13593;BME280;6867;50.998;4.250;2023-08-01T06:35:54;99904.34;;;19.56;81.93
13593;BME280;6867;50.998;4.250;2023-08-01T06:38:21;99899.50;;;20.01;80.22
13593;BME280;6867;50.998;4.250;2023-08-01T06:40:47;99908.22;;;19.21;82.41
13593;BME280;6867;50.998;4.250;2023-08-01T06:43:14;99904.88;;;19.29;81.80
13593;BME280;6867;50.998;4.250;2023-08-01T06:45:41;99910.34;;;19.29;82.69
13593;BME280;6867;50.998;4.250;2023-08-01T06:48:08;99915.16;;;19.37;82.33
13593;BME280;6867;50.998;4.250;2023-08-01T06:50:35;99917.13;;;19.31;83.44
13593;BME280;6867;50.998;4.250;2023-08-01T06:53:02;99914.47;;;19.21;83.52
13593;BME280;6867;50.998;4.250;2023-08-01T06:55:28;99897.41;;;19.39;82.37
13593;BME280;6867;50.998;4.250;2023-08-01T06:57:55;99893.81;;;19.20;82.49
13593;BME280;6867;50.998;4.250;2023-08-01T07:00:22;99902.84;;;19.74;81.22
13593;BME280;6867;50.998;4.250;2023-08-01T07:02:48;99897.97;;;19.95;79.57
13593;BME280;6867;50.998;4.250;2023-08-01T07:05:17;99904.31;;;19.85;79.00
13593;BME280;6867;50.998;4.250;2023-08-01T07:07:43;99923.13;;;19.86;79.31
13593;BME280;6867;50.998;4.250;2023-08-01T07:10:10;99910.72;;;19.75;79.35
13593;BME280;6867;50.998;4.250;2023-08-01T07:12:37;99915.69;;;20.35;78.59
13593;BME280;6867;50.998;4.250;2023-08-01T07:15:04;99904.38;;;20.47;77.62
13593;BME280;6867;50.998;4.250;2023-08-01T07:17:31;99894.25;;;20.28;77.29
13593;BME280;6867;50.998;4.250;2023-08-01T07:19:57;99907.63;;;20.06;77.90
13593;BME280;6867;50.998;4.250;2023-08-01T07:22:25;99912.84;;;20.45;78.20
13593;BME280;6867;50.998;4.250;2023-08-01T07:24:52;99887.28;;;20.41;75.88
13593;BME280;6867;50.998;4.250;2023-08-01T07:27:20;99890.97;;;20.88;74.43
13593;BME280;6867;50.998;4.250;2023-08-01T07:29:46;99894.75;;;21.06;73.90
13593;BME280;6867;50.998;4.250;2023-08-01T07:32:13;99908.47;;;20.49;75.82
13593;BME280;6867;50.998;4.250;2023-08-01T07:34:40;99920.19;;;20.50;75.62
13593;BME280;6867;50.998;4.250;2023-08-01T07:37:07;99923.06;;;20.15;76.58
13593;BME280;6867;50.998;4.250;2023-08-01T07:39:35;99920.34;;;20.15;76.72
13593;BME280;6867;50.998;4.250;2023-08-01T07:42:02;99920.50;;;20.43;76.44
13593;BME280;6867;50.998;4.250;2023-08-01T07:44:28;99905.28;;;20.99;74.46
13593;BME280;6867;50.998;4.250;2023-08-01T07:46:56;99913.69;;;20.83;74.73
13593;BME280;6867;50.998;4.250;2023-08-01T07:49:23;99922.22;;;20.96;74.96
13593;BME280;6867;50.998;4.250;2023-08-01T07:51:50;99912.84;;;20.45;74.09
13593;BME280;6867;50.998;4.250;2023-08-01T07:54:17;99914.44;;;20.70;74.13
13593;BME280;6867;50.998;4.250;2023-08-01T07:56:45;99921.69;;;21.12;73.68
13593;BME280;6867;50.998;4.250;2023-08-01T07:59:14;99919.66;;;20.85;73.54
13593;BME280;6867;50.998;4.250;2023-08-01T08:01:41;99916.38;;;21.02;73.27
13593;BME280;6867;50.998;4.250;2023-08-01T08:04:08;99921.44;;;20.95;73.85
13593;BME280;6867;50.998;4.250;2023-08-01T08:06:35;99931.19;;;21.15;73.70
13593;BME280;6867;50.998;4.250;2023-08-01T08:09:02;99910.31;;;20.30;72.97
13593;BME280;6867;50.998;4.250;2023-08-01T08:11:29;99927.09;;;20.99;73.17
13593;BME280;6867;50.998;4.250;2023-08-01T08:13:57;99935.50;;;21.54;72.51
13593;BME280;6867;50.998;4.250;2023-08-01T08:16:24;99912.13;;;20.96;71.64
13593;BME280;6867;50.998;4.250;2023-08-01T08:18:50;99934.06;;;21.24;72.47
13593;BME280;6867;50.998;4.250;2023-08-01T08:21:17;99940.16;;;21.67;72.86
13593;BME280;6867;50.998;4.250;2023-08-01T08:23:44;99937.31;;;21.45;71.80
13593;BME280;6867;50.998;4.250;2023-08-01T08:26:10;99904.78;;;21.10;70.34
13593;BME280;6867;50.998;4.250;2023-08-01T08:28:37;99907.16;;;20.98;70.21
13593;BME280;6867;50.998;4.250;2023-08-01T08:31:06;99920.19;;;21.20;70.56
13593;BME280;6867;50.998;4.250;2023-08-01T08:33:33;99927.81;;;21.97;69.44
13593;BME280;6867;50.998;4.250;2023-08-01T08:35:59;99912.72;;;21.45;69.28
13593;BME280;6867;50.998;4.250;2023-08-01T08:38:26;99907.16;;;21.31;69.48
13593;BME280;6867;50.998;4.250;2023-08-01T08:41:01;99915.56;;;21.67;69.65
13593;BME280;6867;50.998;4.250;2023-08-01T08:43:32;99915.28;;;21.82;68.64
13593;BME280;6867;50.998;4.250;2023-08-01T08:46:00;99908.88;;;22.42;67.03
13593;BME280;6867;50.998;4.250;2023-08-01T08:48:29;99919.09;;;21.81;67.81
13593;BME280;6867;50.998;4.250;2023-08-01T08:50:57;99922.09;;;22.99;66.13
13593;BME280;6867;50.998;4.250;2023-08-01T08:53:24;99926.56;;;22.95;66.51
13593;BME280;6867;50.998;4.250;2023-08-01T08:55:51;99879.50;;;23.15;63.53
13593;BME280;6867;50.998;4.250;2023-08-01T08:58:18;99898.38;;;22.94;64.51
13593;BME280;6867;50.998;4.250;2023-08-01T09:00:45;99924.97;;;22.94;66.13
13593;BME280;6867;50.998;4.250;2023-08-01T09:03:12;99891.44;;;22.74;64.26
13593;BME280;6867;50.998;4.250;2023-08-01T09:05:44;99905.22;;;22.47;64.70
13593;BME280;6867;50.998;4.250;2023-08-01T09:08:17;99905.84;;;23.25;63.49
13593;BME280;6867;50.998;4.250;2023-08-01T09:10:45;99887.66;;;23.29;62.12
13593;BME280;6867;50.998;4.250;2023-08-01T09:13:12;99935.81;;;22.85;64.42
13593;BME280;6867;50.998;4.250;2023-08-01T09:15:41;99900.66;;;23.23;62.86
13593;BME280;6867;50.998;4.250;2023-08-01T09:18:08;99867.81;;;23.54;60.62
13593;BME280;6867;50.998;4.250;2023-08-01T09:20:47;99904.88;;;22.84;62.85
13593;BME280;6867;50.998;4.250;2023-08-01T09:23:14;99904.63;;;22.72;62.63
13593;BME280;6867;50.998;4.250;2023-08-01T09:25:44;99923.84;;;22.81;63.00
13593;BME280;6867;50.998;4.250;2023-08-01T09:28:18;99892.97;;;23.25;61.54
13593;BME280;6867;50.998;4.250;2023-08-01T09:30:47;99893.75;;;23.88;61.32
13593;BME280;6867;50.998;4.250;2023-08-01T09:33:14;99900.84;;;23.49;61.29
13593;BME280;6867;50.998;4.250;2023-08-01T09:35:41;99929.91;;;23.59;63.20
13593;BME280;6867;50.998;4.250;2023-08-01T09:38:12;99890.84;;;23.22;61.74
13593;BME280;6867;50.998;4.250;2023-08-01T09:40:39;99905.59;;;22.90;62.30
13593;BME280;6867;50.998;4.250;2023-08-01T09:43:06;99916.03;;;22.88;62.33
13593;BME280;6867;50.998;4.250;2023-08-01T09:45:33;99911.56;;;22.20;62.81
13593;BME280;6867;50.998;4.250;2023-08-01T09:48:00;99939.56;;;22.39;64.68
13593;BME280;6867;50.998;4.250;2023-08-01T09:50:28;99970.81;;;22.38;67.13
13593;BME280;6867;50.998;4.250;2023-08-01T09:52:54;99915.25;;;22.74;63.88
13593;BME280;6867;50.998;4.250;2023-08-01T09:55:26;99935.09;;;23.38;63.88
13593;BME280;6867;50.998;4.250;2023-08-01T09:57:58;99907.59;;;22.98;62.74
13593;BME280;6867;50.998;4.250;2023-08-01T10:00:26;99896.75;;;23.16;61.62
13593;BME280;6867;50.998;4.250;2023-08-01T10:02:54;99897.91;;;23.46;61.71
13593;BME280;6867;50.998;4.250;2023-08-01T10:05:21;99892.97;;;23.25;61.35
13593;BME280;6867;50.998;4.250;2023-08-01T10:07:51;99919.91;;;23.32;61.87
13593;BME280;6867;50.998;4.250;2023-08-01T10:10:20;99903.47;;;24.03;60.21
13593;BME280;6867;50.998;4.250;2023-08-01T10:12:49;99899.16;;;24.19;59.10
13593;BME280;6867;50.998;4.250;2023-08-01T10:15:16;99860.66;;;24.42;56.34
13593;BME280;6867;50.998;4.250;2023-08-01T10:17:43;99882.09;;;23.82;58.21
13593;BME280;6867;50.998;4.250;2023-08-01T10:20:11;99911.03;;;23.89;59.25
13593;BME280;6867;50.998;4.250;2023-08-01T10:22:39;99917.28;;;23.49;60.18
13593;BME280;6867;50.998;4.250;2023-08-01T10:25:07;99904.63;;;23.40;59.69
13593;BME280;6867;50.998;4.250;2023-08-01T10:27:35;99909.22;;;23.53;60.20
13593;BME280;6867;50.998;4.250;2023-08-01T10:30:04;99895.69;;;23.56;59.43
13593;BME280;6867;50.998;4.250;2023-08-01T10:32:33;99933.56;;;23.01;61.36
13593;BME280;6867;50.998;4.250;2023-08-01T10:35:00;99901.69;;;23.98;59.46
13593;BME280;6867;50.998;4.250;2023-08-01T10:37:27;99921.47;;;24.35;59.76
13593;BME280;6867;50.998;4.250;2023-08-01T10:40:06;99908.31;;;23.97;59.20
13593;BME280;6867;50.998;4.250;2023-08-01T10:42:37;99921.13;;;22.81;60.71
13593;BME280;6867;50.998;4.250;2023-08-01T10:45:07;99897.59;;;23.47;59.17
13593;BME280;6867;50.998;4.250;2023-08-01T10:47:34;99875.44;;;23.35;57.79
13593;BME280;6867;50.998;4.250;2023-08-01T10:50:00;99951.47;;;23.07;60.63
13593;BME280;6867;50.998;4.250;2023-08-01T10:52:28;99934.16;;;22.98;60.22
13593;BME280;6867;50.998;4.250;2023-08-01T10:54:58;99949.53;;;22.21;61.73
13593;BME280;6867;50.998;4.250;2023-08-01T10:57:27;99945.88;;;22.26;61.64
13593;BME280;6867;50.998;4.250;2023-08-01T10:59:55;99957.81;;;22.57;62.32
13593;BME280;6867;50.998;4.250;2023-08-01T11:02:25;99952.47;;;22.25;61.72
13593;BME280;6867;50.998;4.250;2023-08-01T11:04:56;99965.81;;;22.54;61.65
13593;BME280;6867;50.998;4.250;2023-08-01T11:07:23;99942.09;;;21.80;61.66
13593;BME280;6867;50.998;4.250;2023-08-01T11:09:49;99960.13;;;21.81;62.59
13593;BME280;6867;50.998;4.250;2023-08-01T11:12:27;99948.53;;;22.17;61.63
13593;BME280;6867;50.998;4.250;2023-08-01T11:14:58;99989.22;;;22.60;62.28
13593;BME280;6867;50.998;4.250;2023-08-01T11:17:27;99956.63;;;22.72;61.17
13593;BME280;6867;50.998;4.250;2023-08-01T11:20:00;100007.00;;;22.99;63.23
13593;BME280;6867;50.998;4.250;2023-08-01T11:22:27;99956.13;;;23.51;60.85
13593;BME280;6867;50.998;4.250;2023-08-01T11:24:54;99961.44;;;24.10;60.05
13593;BME280;6867;50.998;4.250;2023-08-01T11:27:21;99909.19;;;24.32;58.23
13593;BME280;6867;50.998;4.250;2023-08-01T11:29:47;99929.13;;;24.07;58.57
13593;BME280;6867;50.998;4.250;2023-08-01T11:32:14;99941.50;;;24.35;58.11
13593;BME280;6867;50.998;4.250;2023-08-01T11:34:42;99934.28;;;24.83;56.96
13593;BME280;6867;50.998;4.250;2023-08-01T11:37:10;99937.38;;;25.33;56.47
13593;BME280;6867;50.998;4.250;2023-08-01T11:39:37;99935.41;;;24.39;56.52
13593;BME280;6867;50.998;4.250;2023-08-01T11:42:04;99969.69;;;24.19;58.28
13593;BME280;6867;50.998;4.250;2023-08-01T11:44:31;99912.59;;;24.29;56.08
13593;BME280;6867;50.998;4.250;2023-08-01T11:46:58;99921.06;;;24.59;55.52
13593;BME280;6867;50.998;4.250;2023-08-01T11:49:24;99903.13;;;24.70;54.47
13593;BME280;6867;50.998;4.250;2023-08-01T11:51:53;99952.16;;;25.67;55.41
13593;BME280;6867;50.998;4.250;2023-08-01T11:54:20;99933.94;;;26.30;53.97
13593;BME280;6867;50.998;4.250;2023-08-01T11:56:46;99929.78;;;26.16;53.94
13593;BME280;6867;50.998;4.250;2023-08-01T11:59:14;99920.06;;;25.89;53.51
13593;BME280;6867;50.998;4.250;2023-08-01T12:01:42;99901.84;;;25.58;52.90
13593;BME280;6867;50.998;4.250;2023-08-01T12:04:09;99906.59;;;25.49;52.82
13593;BME280;6867;50.998;4.250;2023-08-01T12:06:37;99930.38;;;24.49;55.08
13593;BME280;6867;50.998;4.250;2023-08-01T12:09:11;99945.09;;;23.96;57.08
13593;BME280;6867;50.998;4.250;2023-08-01T12:11:38;99940.22;;;23.93;56.90
13593;BME280;6867;50.998;4.250;2023-08-01T12:14:08;99971.09;;;24.47;56.53
13593;BME280;6867;50.998;4.250;2023-08-01T12:16:36;99994.06;;;24.20;58.34
13593;BME280;6867;50.998;4.250;2023-08-01T12:19:03;99966.63;;;24.95;56.53
13593;BME280;6867;50.998;4.250;2023-08-01T12:21:31;99934.63;;;25.33;54.51
13593;BME280;6867;50.998;4.250;2023-08-01T12:23:58;99894.22;;;24.99;52.75
13593;BME280;6867;50.998;4.250;2023-08-01T12:26:26;99943.34;;;25.01;54.47
13593;BME280;6867;50.998;4.250;2023-08-01T12:28:53;99946.56;;;24.94;54.91
13593;BME280;6867;50.998;4.250;2023-08-01T12:31:21;99941.09;;;24.94;54.43
13593;BME280;6867;50.998;4.250;2023-08-01T12:33:48;99900.03;;;25.24;51.33
13593;BME280;6867;50.998;4.250;2023-08-01T12:36:15;99934.56;;;25.51;52.67
13593;BME280;6867;50.998;4.250;2023-08-01T12:38:42;99912.19;;;24.79;52.89
13593;BME280;6867;50.998;4.250;2023-08-01T12:41:09;99913.97;;;24.67;52.71
13593;BME280;6867;50.998;4.250;2023-08-01T12:43:37;99960.66;;;24.93;54.60
13593;BME280;6867;50.998;4.250;2023-08-01T12:46:04;99906.97;;;24.95;52.16
13593;BME280;6867;50.998;4.250;2023-08-01T12:48:31;99972.06;;;24.43;56.08
13593;BME280;6867;50.998;4.250;2023-08-01T12:50:57;99958.97;;;23.91;55.97
13593;BME280;6867;50.998;4.250;2023-08-01T12:53:24;99984.22;;;23.57;57.19
13593;BME280;6867;50.998;4.250;2023-08-01T12:55:51;99962.22;;;24.42;55.09
13593;BME280;6867;50.998;4.250;2023-08-01T12:58:18;99935.28;;;24.96;54.10
13593;BME280;6867;50.998;4.250;2023-08-01T13:00:46;99927.00;;;23.95;54.94
13593;BME280;6867;50.998;4.250;2023-08-01T13:03:13;99929.63;;;24.00;54.44
13593;BME280;6867;50.998;4.250;2023-08-01T13:05:41;99975.09;;;23.93;56.04
13593;BME280;6867;50.998;4.250;2023-08-01T13:08:08;99974.72;;;24.25;55.82
13593;BME280;6867;50.998;4.250;2023-08-01T13:10:37;99993.44;;;23.61;56.99